Time;durP1;ratioP1;P1;durP2;ratioP2;P2;SDS_P1;SDS_P2;PMS_P1;PMS_P2;Temp;Humidity;BMP_temperature;BMP_pressure;BME280_temperature;BME280_humidity;BME280_pressure;Samples;Min_cycle;Max_cycle;Signal;HPM_P1;HPM_P2
2023/01/27 00:01:07;;;;;;;25.90;6.73;;;;;;;0.80;100.00;101680.38;6149419;28;20176;-71
2023/01/27 00:04:03;;;;;;;24.65;7.45;;;;;;;0.89;100.00;101698.31;6148995;28;20020;-71
2023/01/27 00:06:58;;;;;;;20.85;5.13;;;;;;;1.01;100.00;101710.00;6148486;28;20028;-71
2023/01/27 00:09:54;;;;;;;22.40;7.43;;;;;;;0.96;100.00;101696.28;6149418;28;20406;-71
2023/01/27 00:16:03;;;;;;;22.58;5.30;;;;;;;1.10;100.00;101697.44;6141971;28;20398;-70
2023/01/27 00:18:58;;;;;;;23.85;6.38;;;;;;;0.97;100.00;101685.78;6149462;28;20032;-71
2023/01/27 00:25:07;;;;;;;22.70;6.88;;;;;;;1.07;100.00;101699.31;6149612;28;20099;-70
2023/01/27 00:28:07;;;;;;;23.00;6.22;;;;;;;0.97;100.00;101677.97;6148664;28;20024;-70
2023/01/27 00:31:02;;;;;;;25.13;6.65;;;;;;;1.04;100.00;101695.06;6149373;28;20082;-70
2023/01/27 00:34:00;;;;;;;27.08;7.75;;;;;;;0.99;100.00;101686.56;6148062;28;20379;-71
2023/01/27 00:36:56;;;;;;;24.65;7.07;;;;;;;1.05;100.00;101694.16;6148818;28;20097;-71
2023/01/27 00:39:51;;;;;;;18.27;6.03;;;;;;;0.83;100.00;101662.00;6148584;28;20092;-71
2023/01/27 00:42:46;;;;;;;28.30;7.13;;;;;;;1.05;100.00;101696.78;6148343;28;20274;-70
2023/01/27 00:45:48;;;;;;;21.00;6.40;;;;;;;1.13;100.00;101696.47;6148106;28;20039;-70
2023/01/27 00:48:43;;;;;;;27.80;7.18;;;;;;;1.13;100.00;101699.94;6148479;28;20063;-72
2023/01/27 00:51:39;;;;;;;21.35;6.72;;;;;;;1.14;100.00;101693.78;6130568;28;20490;-70
2023/01/27 00:54:34;;;;;;;24.08;6.80;;;;;;;1.22;100.00;101703.09;6147413;28;20392;-71
2023/01/27 00:57:29;;;;;;;35.10;7.50;;;;;;;1.12;100.00;101693.00;6148057;28;20042;-72
2023/01/27 01:00:25;;;;;;;25.53;7.90;;;;;;;1.13;100.00;101694.72;6148723;28;20414;-71
2023/01/27 01:03:21;;;;;;;22.97;6.60;;;;;;;1.21;100.00;101707.44;6147635;28;20057;-70
2023/01/27 01:06:18;;;;;;;28.02;7.28;;;;;;;1.20;100.00;101706.59;6147743;28;20032;-70
2023/01/27 01:09:13;;;;;;;29.33;9.10;;;;;;;1.21;100.00;101704.84;6147011;28;20044;-70
2023/01/27 01:12:08;;;;;;;23.57;7.07;;;;;;;1.18;100.00;101697.97;6147763;28;20067;-72
2023/01/27 01:15:04;;;;;;;33.83;7.33;;;;;;;1.24;100.00;101716.94;6148045;28;20032;-70
2023/01/27 01:17:59;;;;;;;29.45;8.15;;;;;;;1.18;100.00;101716.25;6147808;28;20540;-71
2023/01/27 01:20:55;;;;;;;24.60;6.57;;;;;;;1.20;100.00;101711.81;6148169;28;20082;-70
2023/01/27 01:23:50;;;;;;;29.30;7.07;;;;;;;1.20;100.00;101705.75;6146818;28;20146;-71
2023/01/27 01:26:45;;;;;;;28.03;8.03;;;;;;;1.26;100.00;101725.53;6147896;28;20593;-70
2023/01/27 01:29:40;;;;;;;20.33;7.47;;;;;;;1.28;100.00;101729.78;6147698;28;20282;-71
2023/01/27 01:32:36;;;;;;;22.80;7.30;;;;;;;1.25;100.00;101721.25;6147410;28;20134;-71
2023/01/27 01:35:36;;;;;;;19.60;6.83;;;;;;;1.29;100.00;101730.66;6147478;28;20028;-70
2023/01/27 01:38:32;;;;;;;24.23;7.03;;;;;;;1.28;100.00;101729.78;6147307;28;20055;-72
2023/01/27 01:41:28;;;;;;;25.88;7.68;;;;;;;1.11;100.00;101688.69;6147611;28;20067;-69
2023/01/27 01:44:26;;;;;;;23.07;7.43;;;;;;;1.31;100.00;101714.00;6146525;28;20352;-70
2023/01/27 01:47:22;;;;;;;24.88;7.13;;;;;;;1.32;100.00;101723.53;6147228;28;20027;-70
2023/01/27 01:50:17;;;;;;;23.97;7.27;;;;;;;1.42;100.00;101724.00;6147146;28;20106;-70
2023/01/27 01:53:13;;;;;;;27.83;6.83;;;;;;;1.38;100.00;101730.28;6129284;28;20067;-71
2023/01/27 01:56:15;;;;;;;21.48;6.45;;;;;;;1.23;100.00;101704.75;6147481;28;20533;-72
2023/01/27 01:59:38;;;;;;;19.60;5.13;;;;;;;1.47;100.00;101727.31;6128930;28;20054;-71
2023/01/27 02:02:33;;;;;;;24.30;6.07;;;;;;;1.48;100.00;101736.81;6145465;28;20056;-71
2023/01/27 02:05:32;;;;;;;32.97;7.93;;;;;;;1.41;100.00;101720.56;6146910;28;20032;-72
2023/01/27 02:08:38;;;;;;;23.75;6.68;;;;;;;1.49;100.00;101743.75;6146905;28;20035;-70
2023/01/27 02:11:34;;;;;;;23.80;7.30;;;;;;;1.46;100.00;101728.19;6141907;28;20043;-70
2023/01/27 02:14:29;;;;;;;19.73;6.67;;;;;;;1.54;100.00;101744.41;6146153;28;20040;-70
2023/01/27 02:17:24;;;;;;;26.57;7.80;;;;;;;1.51;100.00;101731.47;6128386;28;20383;-71
2023/01/27 02:20:40;;;;;;;25.67;6.63;;;;;;;1.58;100.00;101740.75;6128322;28;20490;-70
2023/01/27 02:23:38;;;;;;;24.75;7.18;;;;;;;1.49;100.00;101728.94;6127784;28;20294;-71
2023/01/27 02:26:36;;;;;;;21.48;7.28;;;;;;;1.57;100.00;101720.78;6128218;28;20032;-72
2023/01/27 02:29:31;;;;;;;23.10;6.57;;;;;;;1.62;100.00;101737.09;6146038;28;20043;-70
2023/01/27 02:32:26;;;;;;;18.17;6.73;;;;;;;1.55;100.00;101727.84;6144963;28;20051;-72
2023/01/27 02:35:32;;;;;;;24.10;6.60;;;;;;;1.61;100.00;101727.56;6146424;28;20070;-71
2023/01/27 02:38:33;;;;;;;22.75;6.72;;;;;;;1.59;100.00;101732.84;6127965;28;20039;-70
2023/01/27 02:41:34;;;;;;;17.67;5.85;;;;;;;1.67;100.00;101742.97;6145700;28;20032;-71
2023/01/27 02:44:30;;;;;;;18.65;5.68;;;;;;;1.65;100.00;101742.22;6127259;28;20047;-71
2023/01/27 02:47:26;;;;;;;17.13;6.22;;;;;;;1.61;100.00;101722.31;6127709;28;20060;-72
2023/01/27 02:50:21;;;;;;;16.07;5.37;;;;;;;1.73;100.00;101740.13;6145984;28;20048;-70
2023/01/27 02:53:16;;;;;;;18.70;5.87;;;;;;;1.70;100.00;101737.63;6145195;28;20282;-70
2023/01/27 02:56:12;;;;;;;18.10;6.87;;;;;;;1.83;100.00;101748.41;6145637;28;20040;-70
2023/01/27 02:59:07;;;;;;;18.13;6.97;;;;;;;1.70;100.00;101732.41;6145455;28;20040;-70
2023/01/27 03:02:02;;;;;;;19.35;5.82;;;;;;;1.77;100.00;101741.69;6145004;28;20024;-70
2023/01/27 03:04:59;;;;;;;18.87;5.77;;;;;;;1.80;100.00;101755.47;6145846;28;20032;-71
2023/01/27 03:07:54;;;;;;;19.90;6.28;;;;;;;1.77;100.00;101746.91;6145148;28;20046;-70
2023/01/27 03:10:51;;;;;;;21.07;5.77;;;;;;;1.85;100.00;101763.13;6145174;28;20470;-69
2023/01/27 03:13:46;;;;;;;18.63;6.28;;;;;;;1.88;100.00;101763.00;6145399;28;20533;-71
2023/01/27 03:19:55;;;;;;;17.88;5.85;;;;;;;1.88;100.00;101763.00;6145610;28;20058;-71
2023/01/27 03:22:51;;;;;;;26.73;6.00;;;;;;;1.86;100.00;101759.59;6144601;28;20036;-71
2023/01/27 03:25:47;;;;;;;20.77;5.35;;;;;;;1.82;100.00;101751.97;6145857;28;20544;-71
2023/01/27 03:28:42;;;;;;;13.60;5.68;;;;;;;1.83;100.00;101749.25;6145067;28;20036;-70
2023/01/27 03:31:37;;;;;;;15.47;5.27;;;;;;;1.93;100.00;101771.47;6145345;28;20032;-71
2023/01/27 03:34:33;;;;;;;12.53;5.67;;;;;;;1.90;100.00;101761.19;6144485;28;20364;-72
2023/01/27 03:47:11;;;;;;;18.73;5.97;;;;;;;1.88;100.00;101765.59;6145453;28;20028;-71
2023/01/27 03:50:10;;;;;;;12.90;5.37;;;;;;;1.97;100.00;101780.06;6144658;28;20032;-70
2023/01/27 03:53:05;;;;;;;16.95;6.30;;;;;;;1.92;100.00;101768.94;6144816;28;20423;-72
2023/01/27 03:56:02;;;;;;;19.92;6.38;;;;;;;1.90;100.00;101766.41;6145146;28;20036;-72
2023/01/27 03:58:57;;;;;;;18.58;5.68;;;;;;;2.01;100.00;101774.63;6145621;28;20041;-71
2023/01/27 04:08:21;;;;;;;15.30;5.70;;;;;;;1.98;100.00;101766.94;6145140;28;20043;-70
2023/01/27 04:14:33;;;;;;;17.88;4.97;;;;;;;2.01;100.00;101758.94;6144799;28;20082;-70
2023/01/27 04:17:29;;;;;;;18.80;6.40;;;;;;;2.08;100.00;101770.84;6144689;28;20402;-72
2023/01/27 04:20:24;;;;;;;14.05;5.13;;;;;;;2.02;100.00;101763.25;6145327;28;20036;-71
2023/01/27 04:23:20;;;;;;;14.40;5.93;;;;;;;2.07;100.00;101771.75;6147180;28;20397;-70
2023/01/27 04:26:15;;;;;;;12.15;5.07;;;;;;;2.09;100.00;101780.38;6149296;28;20274;-70
2023/01/27 04:29:14;;;;;;;15.50;4.77;;;;;;;2.10;100.00;101786.47;6148954;28;20109;-71
2023/01/27 04:32:11;;;;;;;14.98;4.80;;;;;;;1.87;100.00;101750.84;6148406;28;20056;-71
2023/01/27 04:35:06;;;;;;;10.70;4.03;;;;;;;2.02;100.00;101776.34;6148611;28;20032;-71
2023/01/27 04:38:01;;;;;;;12.10;4.63;;;;;;;2.09;100.00;101793.44;6148688;28;20078;-72
2023/01/27 04:40:57;;;;;;;14.03;4.33;;;;;;;2.03;100.00;101780.66;6149244;28;20046;-71
2023/01/27 04:43:52;;;;;;;12.27;3.90;;;;;;;2.08;100.00;101802.22;6147437;28;20027;-71
2023/01/27 04:46:48;;;;;;;12.13;4.63;;;;;;;2.07;100.00;101803.13;6148769;28;20032;-71
2023/01/27 04:49:43;;;;;;;12.13;4.10;;;;;;;2.07;100.00;101794.44;6148539;28;20139;-70
2023/01/27 04:52:39;;;;;;;12.83;4.63;;;;;;;2.11;100.00;101799.50;6148000;28;20047;-71
2023/01/27 04:55:34;;;;;;;11.03;3.93;;;;;;;2.08;100.00;101806.63;6147959;28;20028;-71
2023/01/27 04:58:29;;;;;;;13.77;4.67;;;;;;;2.18;100.00;101816.63;6148568;28;20028;-72
2023/01/27 05:01:25;;;;;;;12.03;3.93;;;;;;;2.13;100.00;101805.50;6148559;28;20032;-71
2023/01/27 05:04:20;;;;;;;10.88;3.75;;;;;;;2.15;100.00;101819.34;6147656;28;20040;-72
2023/01/27 05:07:16;;;;;;;10.80;3.80;;;;;;;2.23;100.00;101824.25;6148224;28;20388;-72
2023/01/27 05:10:11;;;;;;;10.87;4.53;;;;;;;2.18;100.00;101824.47;6149877;28;20418;-70
2023/01/27 05:13:06;;;;;;;9.80;4.00;;;;;;;2.20;100.00;101832.25;6149461;28;20043;-72
2023/01/27 05:16:03;;;;;;;7.50;3.17;;;;;;;2.26;100.00;101831.97;6153013;28;20031;-72
2023/01/27 05:18:58;;;;;;;9.10;2.92;;;;;;;2.25;100.00;101835.53;6148170;28;20467;-71
2023/01/27 05:21:54;;;;;;;9.57;3.67;;;;;;;2.11;100.00;101806.47;6147488;28;20031;-70
2023/01/27 05:24:49;;;;;;;9.53;3.13;;;;;;;2.23;100.00;101827.72;6147598;28;20043;-70
2023/01/27 05:27:44;;;;;;;7.00;2.47;;;;;;;2.29;100.00;101842.31;6129362;28;20038;-71
2023/01/27 05:30:40;;;;;;;10.27;4.27;;;;;;;2.26;100.00;101832.84;6148177;28;20046;-71
2023/01/27 05:33:35;;;;;;;6.87;2.53;;;;;;;2.28;100.00;101825.75;6146589;28;20122;-71
2023/01/27 05:36:30;;;;;;;7.97;3.30;;;;;;;2.27;100.00;101838.94;6147793;28;20051;-71
2023/01/27 05:39:26;;;;;;;8.23;2.80;;;;;;;2.25;100.00;101835.53;6147635;28;20028;-70
2023/01/27 05:42:21;;;;;;;6.67;2.50;;;;;;;2.36;100.00;101857.69;6145766;28;20040;-71
2023/01/27 05:45:16;;;;;;;6.97;3.13;;;;;;;2.39;100.00;101852.31;6147648;28;20119;-70
2023/01/27 05:48:11;;;;;;;7.27;3.47;;;;;;;2.30;100.00;101841.41;6147092;28;20391;-70
2023/01/27 05:51:07;;;;;;;8.23;2.70;;;;;;;2.38;100.00;101849.78;6147742;28;20036;-71
2023/01/27 05:54:03;;;;;;;4.90;2.03;;;;;;;2.39;100.00;101856.72;6146741;28;20024;-70
2023/01/27 05:56:58;;;;;;;6.55;2.50;;;;;;;2.33;100.00;101852.59;6146622;28;20433;-72
2023/01/27 05:59:53;;;;;;;6.90;2.33;;;;;;;2.36;100.00;101855.06;6146955;28;20043;-71
2023/01/27 06:02:48;;;;;;;5.80;2.23;;;;;;;2.34;100.00;101854.28;6145929;28;20040;-71
2023/01/27 06:05:55;;;;;;;6.37;3.00;;;;;;;2.37;100.00;101869.88;6146526;28;20372;-71
2023/01/27 06:08:51;;;;;;;5.95;2.33;;;;;;;2.39;100.00;101870.63;6146608;28;20032;-71
2023/01/27 06:11:46;;;;;;;7.97;2.35;;;;;;;2.33;100.00;101870.06;6146730;28;20020;-72
2023/01/27 06:14:41;;;;;;;6.27;1.87;;;;;;;2.42;100.00;101874.06;6146395;28;20115;-70
2023/01/27 06:17:36;;;;;;;5.10;2.10;;;;;;;2.32;100.00;101874.44;6146426;28;20085;-69
2023/01/27 06:20:32;;;;;;;7.93;2.40;;;;;;;2.40;100.00;101882.81;6147017;28;20111;-71
2023/01/27 06:23:27;;;;;;;5.33;2.07;;;;;;;2.32;100.00;101874.44;6146229;28;20028;-70
2023/01/27 06:26:23;;;;;;;5.10;1.67;;;;;;;2.42;100.00;101879.31;6145722;28;20030;-72
2023/01/27 06:29:18;;;;;;;5.63;2.60;;;;;;;2.46;100.00;101896.56;6146798;28;20506;-69
2023/01/27 06:32:13;;;;;;;5.60;2.00;;;;;;;2.42;100.00;101881.91;6145473;28;20082;-70
2023/01/27 06:35:09;;;;;;;4.70;1.92;;;;;;;2.48;100.00;101892.09;6146788;28;20081;-70
2023/01/27 06:38:07;;;;;;;4.97;2.00;;;;;;;2.49;100.00;101891.19;6146403;28;20043;-74
2023/01/27 06:41:02;;;;;;;4.03;1.90;;;;;;;2.42;100.00;101882.75;6145903;28;20544;-70
2023/01/27 06:43:58;;;;;;;5.18;1.98;;;;;;;2.37;100.00;101876.84;6144648;28;20040;-70
2023/01/27 06:46:53;;;;;;;3.70;1.60;;;;;;;2.35;100.00;101874.31;6145919;28;20391;-71
2023/01/27 06:49:48;;;;;;;2.83;1.20;;;;;;;2.42;100.00;101884.53;6146513;28;20506;-70
2023/01/27 06:52:44;;;;;;;3.60;1.53;;;;;;;2.39;100.00;101891.56;6145341;28;20031;-70
2023/01/27 06:55:40;;;;;;;1.93;1.03;;;;;;;2.35;100.00;101883.94;6145561;28;20101;-70
2023/01/27 06:58:35;;;;;;;5.97;1.98;;;;;;;2.39;100.00;101896.81;6146728;28;20103;-71
2023/01/27 07:01:30;;;;;;;2.63;1.20;;;;;;;2.32;100.00;101890.16;6145881;28;20043;-70
2023/01/27 07:04:26;;;;;;;3.10;1.50;;;;;;;2.38;100.00;101905.59;6144947;28;20039;-71
2023/01/27 07:07:21;;;;;;;4.03;0.80;;;;;;;2.36;100.00;101902.16;6145749;28;20020;-70
2023/01/27 07:10:16;;;;;;;5.47;1.40;;;;;;;2.27;100.00;101888.63;6145349;28;20274;-71
2023/01/27 07:13:13;;;;;;;4.23;1.10;;;;;;;2.26;100.00;101895.63;6144934;28;20024;-70
2023/01/27 07:16:08;;;;;;;3.00;0.95;;;;;;;2.35;100.00;101910.97;6145777;28;20773;-71
2023/01/27 07:19:03;;;;;;;3.17;1.40;;;;;;;2.37;100.00;101914.34;6145791;28;20047;-72
2023/01/27 07:21:59;;;;;;;2.97;1.10;;;;;;;2.32;100.00;101900.63;6145090;28;20032;-70
2023/01/27 07:24:55;;;;;;;2.40;1.02;;;;;;;2.32;100.00;101911.09;6146100;28;20090;-71
2023/01/27 07:27:50;;;;;;;3.73;1.33;;;;;;;2.31;100.00;101909.38;6145489;28;20044;-71
2023/01/27 07:30:45;;;;;;;3.45;1.23;;;;;;;2.39;100.00;101924.78;6145634;28;20086;-72
2023/01/27 07:33:41;;;;;;;2.97;1.30;;;;;;;2.31;100.00;101922.47;6144890;28;20048;-70
2023/01/27 07:36:36;;;;;;;3.17;1.30;;;;;;;2.38;100.00;101939.63;6145105;28;20035;-70
2023/01/27 07:39:32;;;;;;;5.20;1.77;;;;;;;2.41;100.00;101943.88;6145892;28;20445;-71
2023/01/27 07:42:27;;;;;;;4.57;1.83;;;;;;;2.32;100.00;101937.25;6144564;28;20429;-71
2023/01/27 07:45:23;;;;;;;4.60;1.47;;;;;;;2.37;100.00;101945.75;6145620;28;20047;-71
2023/01/27 07:48:18;;;;;;;2.87;1.40;;;;;;;2.42;100.00;101957.81;6145481;28;20094;-71
2023/01/27 07:51:14;;;;;;;5.37;1.77;;;;;;;2.40;100.00;101956.09;6145271;28;20036;-71
2023/01/27 07:54:10;;;;;;;6.03;1.80;;;;;;;2.32;100.00;101946.88;6145007;28;20566;-72
2023/01/27 07:57:05;;;;;;;3.60;1.73;;;;;;;2.38;100.00;101957.09;6148706;28;20118;-71
2023/01/27 08:00:01;;;;;;;4.30;1.60;;;;;;;2.40;100.00;101970.94;6149624;28;20047;-70
2023/01/27 08:02:57;;;;;;;5.00;1.50;;;;;;;2.45;100.00;101979.47;6131321;28;20494;-71
2023/01/27 08:05:52;;;;;;;5.50;1.80;;;;;;;2.37;100.00;101971.94;6149656;28;20046;-70
2023/01/27 08:08:47;;;;;;;4.37;1.67;;;;;;;2.48;100.00;101983.72;6149893;28;20028;-70
2023/01/27 08:11:43;;;;;;;3.23;1.67;;;;;;;2.49;100.00;101991.53;6149676;28;20581;-71
2023/01/27 08:14:38;;;;;;;4.90;1.80;;;;;;;2.38;100.00;101976.25;6148820;28;20047;-71
2023/01/27 08:17:34;;;;;;;4.27;1.50;;;;;;;2.46;100.00;101989.03;6149451;28;20032;-71
2023/01/27 08:20:29;;;;;;;2.37;1.10;;;;;;;2.47;100.00;101997.75;6149755;28;20084;-71
2023/01/27 08:23:24;;;;;;;5.77;1.40;;;;;;;2.37;100.00;101987.63;6148503;28;20039;-70
2023/01/27 08:26:20;;;;;;;5.57;1.70;;;;;;;2.42;100.00;101997.09;6149494;28;20031;-70
2023/01/27 08:29:15;;;;;;;5.70;1.43;;;;;;;2.36;100.00;101999.00;6149513;28;20054;-70
2023/01/27 08:32:10;;;;;;;4.03;1.43;;;;;;;2.32;100.00;102000.06;6155057;28;20031;-71
2023/01/27 08:35:06;;;;;;;2.40;0.95;;;;;;;2.34;100.00;102002.59;6149099;28;20170;-72
2023/01/27 08:38:01;;;;;;;2.00;1.08;;;;;;;2.40;100.00;102013.69;6149489;28;20024;-71
2023/01/27 08:40:57;;;;;;;2.77;0.90;;;;;;;2.42;100.00;102011.84;6148498;28;20051;-72
2023/01/27 08:43:55;;;;;;;4.60;1.53;;;;;;;2.42;100.00;102002.31;6147920;28;20430;-70
2023/01/27 08:46:50;;;;;;;1.77;0.80;;;;;;;2.36;100.00;102012.09;6148880;28;20075;-71
2023/01/27 08:49:46;;;;;;;3.93;1.57;;;;;;;2.42;100.00;102023.25;6148840;28;20463;-71
2023/01/27 08:52:42;;;;;;;1.58;0.77;;;;;;;2.33;100.00;102012.25;6147901;28;20380;-72
2023/01/27 08:55:37;;;;;;;2.67;1.10;;;;;;;2.32;100.00;102010.53;6148684;28;20032;-69
2023/01/27 08:58:33;;;;;;;1.87;0.90;;;;;;;2.45;100.00;102037.03;6148357;28;20032;-71
2023/01/27 09:01:28;;;;;;;8.40;1.15;;;;;;;2.47;100.00;102029.16;6148824;28;20082;-70
2023/01/27 09:04:23;;;;;;;2.40;1.13;;;;;;;2.39;100.00;102027.69;6147478;28;20039;-72
2023/01/27 09:07:19;;;;;;;3.73;1.30;;;;;;;2.42;100.00;102039.78;6147619;28;20035;-71
2023/01/27 09:10:15;;;;;;;3.73;1.20;;;;;;;2.42;100.00;102033.72;6148131;28;20032;-72
2023/01/27 09:13:10;;;;;;;2.50;1.10;;;;;;;2.43;100.00;102033.66;6147282;28;20036;-72
2023/01/27 09:16:06;;;;;;;4.83;1.63;;;;;;;2.39;100.00;102037.31;6148404;28;20036;-72
2023/01/27 09:19:02;;;;;;;2.75;1.10;;;;;;;2.49;100.00;102046.50;6147745;28;20274;-71
2023/01/27 09:21:58;;;;;;;1.67;0.82;;;;;;;2.58;100.00;102047.91;6147562;28;20035;-72
2023/01/27 09:24:53;;;;;;;2.17;0.77;;;;;;;2.62;100.00;102050.31;6148047;28;20023;-73
2023/01/27 09:27:52;;;;;;;1.70;0.80;;;;;;;2.38;100.00;102020.75;6147830;28;20090;-72
2023/01/27 09:30:48;;;;;;;2.10;1.00;;;;;;;2.57;100.00;102040.94;6147794;28;20032;-70
2023/01/27 09:33:43;;;;;;;3.00;1.33;;;;;;;2.68;100.00;102051.84;6146993;28;20411;-72
2023/01/27 09:36:43;;;;;;;3.23;1.10;;;;;;;2.57;100.00;102052.28;6147747;28;20043;-72
2023/01/27 09:39:56;;;;;;;1.95;1.05;;;;;;;2.73;100.00;102060.34;6147474;28;20433;-70
2023/01/27 09:43:16;;;;;;;1.95;0.75;;;;;;;2.78;100.00;102066.25;6129010;28;20074;-70
2023/01/27 09:46:52;;;;;;;3.83;1.02;;;;;;;2.69;100.00;102050.94;6146999;28;20506;-71
2023/01/27 09:50:07;;;;;;;4.13;0.80;;;;;;;2.76;100.00;102071.56;6147338;28;20031;-71
2023/01/27 09:53:37;;;;;;;2.30;0.60;;;;;;;2.76;100.00;102068.94;6146960;28;20039;-72
2023/01/27 09:56:42;;;;;;;1.83;0.80;;;;;;;2.74;100.00;102047.22;6139690;28;20043;-71
2023/01/27 09:59:50;;;;;;;1.75;0.55;;;;;;;2.79;100.00;102073.19;6147318;28;20050;-73
2023/01/27 10:02:59;;;;;;;;;;;;;;;2.77;100.00;102068.00;6128641;28;20544;-72
2023/01/27 10:06:32;;;;;;;2.53;1.00;;;;;;;2.81;100.00;102060.88;6147615;28;19961;-71
2023/01/27 10:10:05;;;;;;;3.22;1.00;;;;;;;2.77;100.00;102069.78;6128691;28;20036;-71
2023/01/27 10:13:15;;;;;;;2.13;1.02;;;;;;;2.81;100.00;102076.59;6145625;28;20031;-71
2023/01/27 10:16:19;;;;;;;1.92;0.80;;;;;;;2.77;100.00;102072.41;6128332;28;20038;-70
2023/01/27 10:19:17;;;;;;;1.42;0.82;;;;;;;2.73;100.00;102062.97;6129197;28;20482;-70
2023/01/27 10:22:41;;;;;;;1.48;0.63;;;;;;;2.76;100.00;102055.84;6145857;28;20055;-72
2023/01/27 10:25:36;;;;;;;1.80;0.70;;;;;;;2.90;100.00;102066.59;6146659;28;20032;-71
2023/01/27 10:28:32;;;;;;;5.60;1.38;;;;;;;2.90;100.00;102047.41;6146828;28;20060;-72
2023/01/27 10:31:34;;;;;;;4.68;1.02;;;;;;;2.97;100.00;102068.03;6128046;28;20040;-72
2023/01/27 10:34:42;;;;;;;3.00;0.70;;;;;;;2.98;100.00;102058.41;6146201;28;20040;-73
2023/01/27 10:37:49;;;;;;;5.03;1.13;;;;;;;2.81;100.00;102050.41;6128233;28;20047;-73
2023/01/27 10:41:15;;;;;;;2.85;0.50;;;;;;;2.89;100.00;102066.66;6146057;28;20549;-72
2023/01/27 10:44:37;;;;;;;0.75;0.50;;;;;;;2.96;100.00;102065.50;6145213;28;20048;-72
2023/01/27 10:47:41;;;;;;;3.40;0.85;;;;;;;3.17;100.00;102069.81;6128150;28;20537;-73
2023/01/27 10:50:41;;;;;;;1.98;0.70;;;;;;;3.22;100.00;102067.00;6127875;28;20048;-72
2023/01/27 10:53:48;;;;;;;2.13;0.68;;;;;;;3.05;100.00;102054.63;6121888;28;20028;-71
2023/01/27 10:56:48;;;;;;;1.85;0.70;;;;;;;3.10;100.00;102076.22;6128085;28;20097;-73
2023/01/27 10:59:53;;;;;;;1.33;0.60;;;;;;;3.17;100.00;102074.22;6128323;28;20410;-71
2023/01/27 11:03:11;;;;;;;3.10;0.60;;;;;;;3.06;100.00;102068.56;6145462;28;20024;-72
2023/01/27 11:06:12;;;;;;;2.20;0.77;;;;;;;3.03;100.00;102071.31;6128230;28;20380;-73
2023/01/27 11:09:23;;;;;;;1.35;0.43;;;;;;;2.99;100.00;102075.81;6145941;28;20036;-71
2023/01/27 11:12:25;;;;;;;1.40;0.70;;;;;;;2.84;100.00;102050.28;6116249;28;20035;-72
2023/01/27 11:15:38;;;;;;;3.92;0.68;;;;;;;2.91;100.00;102051.72;6115059;28;20032;-71
2023/01/27 11:18:36;;;;;;;3.75;0.80;;;;;;;2.95;100.00;102062.03;6146129;28;20072;-70
2023/01/27 11:21:32;;;;;;;2.50;0.77;;;;;;;2.90;100.00;102057.88;6127789;28;20024;-72
2023/01/27 11:24:39;;;;;;;0.70;0.50;;;;;;;3.02;100.00;102069.63;6127388;28;20039;-72
2023/01/27 11:27:53;;;;;;;5.45;0.90;;;;;;;2.95;100.00;102054.16;6127819;28;20433;-72
2023/01/27 11:31:34;;;;;;;1.35;0.70;;;;;;;2.92;100.00;102063.91;6147257;28;20386;-72
2023/01/27 11:34:34;;;;;;;3.45;0.73;;;;;;;2.88;100.00;102057.09;6051312;28;20045;-71
2023/01/27 11:37:33;;;;;;;4.80;1.75;;;;;;;2.89;100.00;102064.03;6145932;28;20028;-72
2023/01/27 11:40:32;;;;;;;2.72;1.20;;;;;;;2.95;100.00;102074.25;6132267;28;20391;-71
2023/01/27 11:43:28;;;;;;;2.20;0.82;;;;;;;2.96;100.00;102065.50;6131705;28;20040;-72
2023/01/27 11:46:23;;;;;;;1.38;0.70;;;;;;;2.87;100.00;102065.88;6147044;28;20032;-72
2023/01/27 11:49:26;;;;;;;3.15;0.77;;;;;;;2.86;100.00;102074.63;6150630;28;20060;-71
2023/01/27 11:52:25;;;;;;;2.22;1.17;;;;;;;2.80;100.00;102061.81;6131752;28;20035;-71
2023/01/27 11:55:37;;;;;;;3.13;1.08;;;;;;;2.81;100.00;102081.84;6132591;28;20450;-71
2023/01/27 11:58:38;;;;;;;1.88;0.70;;;;;;;2.62;100.00;102059.94;6132317;28;20059;-70
2023/01/27 12:01:39;;;;;;;3.50;0.95;;;;;;;2.72;100.00;102063.88;6131980;28;20038;-71
2023/01/27 12:04:58;;;;;;;1.67;0.70;;;;;;;2.84;100.00;102061.63;6131495;28;20024;-70
2023/01/27 12:07:56;;;;;;;3.03;0.82;;;;;;;2.78;100.00;102053.16;6131651;28;20032;-72
2023/01/27 12:10:52;;;;;;;1.55;0.90;;;;;;;2.80;100.00;102054.78;6146596;28;20115;-72
2023/01/27 12:13:49;;;;;;;1.83;0.77;;;;;;;2.84;100.00;102060.75;6149114;28;20032;-71
2023/01/27 12:16:48;;;;;;;1.85;1.00;;;;;;;2.83;100.00;102069.53;6149080;28;20406;-70
2023/01/27 12:19:43;;;;;;;3.05;1.15;;;;;;;2.77;100.00;102067.19;6149650;28;20032;-71
2023/01/27 12:22:39;;;;;;;4.38;0.80;;;;;;;2.75;100.00;102071.59;6130726;28;20467;-72
2023/01/27 12:25:47;;;;;;;3.13;0.82;;;;;;;2.62;100.00;102060.78;6149675;28;20036;-71
2023/01/27 12:28:45;;;;;;;;;;;;;;;2.64;100.00;102072.03;6149684;28;20031;-70
2023/01/27 12:31:46;;;;;;;6.10;1.83;;;;;;;2.61;100.00;102053.00;6149139;28;19920;-72
2023/01/27 12:34:43;;;;;;;1.02;0.47;;;;;;;2.61;100.00;102050.38;6148955;28;20067;-71
2023/01/27 12:37:38;;;;;;;8.80;3.53;;;;;;;2.67;100.00;102050.13;6131444;28;20024;-70
2023/01/27 12:40:42;;;;;;;1.53;0.80;;;;;;;2.73;100.00;102055.09;6149102;28;20126;-70
2023/01/27 12:43:55;;;;;;;1.77;0.63;;;;;;;2.67;100.00;102037.88;6147291;28;20597;-72
2023/01/27 12:47:00;;;;;;;2.00;0.77;;;;;;;2.70;100.00;102036.91;6131086;28;20035;-70
2023/01/27 12:50:20;;;;;;;1.40;0.40;;;;;;;2.83;100.00;102052.03;6149166;28;20032;-71
2023/01/27 12:53:26;;;;;;;1.75;0.50;;;;;;;2.73;100.00;102032.41;6148290;28;20503;-71
2023/01/27 12:56:22;;;;;;;0.77;0.40;;;;;;;2.84;100.00;102045.03;6130608;28;20077;-71
2023/01/27 12:59:20;;;;;;;2.83;0.60;;;;;;;2.75;100.00;102034.94;6148875;28;20032;-71
2023/01/27 13:02:19;;;;;;;3.00;0.38;;;;;;;2.79;100.00;102039.16;6148232;28;20028;-71
2023/01/27 13:05:16;;;;;;;2.90;1.00;;;;;;;2.77;100.00;102041.00;6130502;28;20036;-71
2023/01/27 13:08:17;;;;;;;6.03;1.20;;;;;;;2.73;100.00;102028.91;6148369;28;20115;-72
2023/01/27 13:11:12;;;;;;;1.83;0.52;;;;;;;2.73;100.00;102045.50;6148161;28;20074;-71
2023/01/27 13:14:15;;;;;;;1.60;0.57;;;;;;;2.79;100.00;102047.88;6129755;28;20032;-71
2023/01/27 13:17:35;;;;;;;7.15;0.70;;;;;;;2.69;100.00;102045.69;6148570;28;20028;-71
2023/01/27 13:20:38;;;;;;;1.95;0.73;;;;;;;2.58;100.00;102040.03;6137403;28;20109;-70
2023/01/27 13:23:36;;;;;;;1.60;0.63;;;;;;;2.57;100.00;102040.94;6129213;28;20031;-73
2023/01/27 13:26:33;;;;;;;1.27;0.70;;;;;;;2.69;100.00;102040.47;6148011;28;20109;-71
2023/01/27 13:29:31;;;;;;;1.98;0.85;;;;;;;2.70;100.00;102044.75;6148283;28;20041;-71
2023/01/27 13:32:29;;;;;;;1.25;0.80;;;;;;;2.69;100.00;102056.16;6129435;28;20032;-72
2023/01/27 13:35:30;;;;;;;1.25;0.50;;;;;;;2.73;100.00;102049.88;6129732;28;20035;-69
2023/01/27 13:38:30;;;;;;;;;;;;;;;2.79;100.00;102053.09;6129971;28;20043;-72
2023/01/27 13:41:35;;;;;;;1.98;0.70;;;;;;;2.75;100.00;102046.28;6129806;28;19907;-71
2023/01/27 13:44:50;;;;;;;5.97;0.63;;;;;;;2.66;100.00;102045.81;6129152;28;20048;-70
2023/01/27 13:47:50;;;;;;;4.85;1.05;;;;;;;2.69;100.00;102045.69;6129747;28;20028;-72
2023/01/27 13:50:49;;;;;;;2.53;1.00;;;;;;;2.62;100.00;102049.47;6129747;28;20028;-71
2023/01/27 13:53:46;;;;;;;3.30;1.20;;;;;;;2.55;100.00;102043.63;6127714;28;20538;-71
2023/01/27 13:57:11;;;;;;;3.03;0.90;;;;;;;2.57;100.00;102073.22;6129684;28;20035;-71
2023/01/27 14:00:20;;;;;;;1.10;0.60;;;;;;;2.57;100.00;102069.75;6129126;28;20023;-72
2023/01/27 14:03:23;;;;;;;3.00;0.73;;;;;;;2.49;100.00;102074.44;6146859;28;20032;-71
2023/01/27 14:06:40;;;;;;;3.97;1.00;;;;;;;2.52;100.00;102079.56;6147095;28;20070;-71
2023/01/27 14:09:41;;;;;;;4.72;0.80;;;;;;;2.48;100.00;102089.28;6146848;28;20028;-72
2023/01/27 14:12:55;;;;;;;8.30;2.67;;;;;;;2.47;100.00;102081.50;6146321;28;20126;-71
2023/01/27 14:16:06;;;;;;;4.60;1.25;;;;;;;2.49;100.00;102090.13;6129184;28;20134;-71
2023/01/27 14:19:15;;;;;;;3.05;0.82;;;;;;;2.46;100.00;102088.50;6128765;28;20035;-70
2023/01/27 14:22:31;;;;;;;2.15;0.68;;;;;;;2.47;98.48;102091.97;6127789;28;20048;-70